Lintlaw, Canada
Current Conditions -  °F | °C
As of 5:04 PM on Saturday 20 Dec 2014 (Local Time) from CYQV Reporting Station
Haze Haze  
Wind Chill: 12°   Ceiling: 400
Heat Index: 23°   Visibility: 5mi
Dew Point: 23°   Wind: 10mph
Humidity: 100%   Direction: 150°SSE
Pressure: 29.72"   Gusts: NA
Location:  52.07°N, 103.25°W
Report Text: CYQV 202304Z AUTO 15009KT 5SM BR OVC004 M05/M05 A2972 RMK SLP098
Loading
Personal Weather Stations






























Interactive Weather Map New forecast layout! Learn more

10-Day Weather Forecast

Advertisements
Track Severe Weather on mobile